sensor_id;sensor_type;location;lat;lon;timestamp;P1;durP1;ratioP1;P2;durP2;ratioP2
20073;SDS011;10197;54.282;10.078;2022-08-21T00:01:40;2.88;;;2.30;;
20073;SDS011;10197;54.282;10.078;2022-08-21T00:04:07;2.97;;;2.33;;
20073;SDS011;10197;54.282;10.078;2022-08-21T00:06:34;2.88;;;2.33;;
20073;SDS011;10197;54.282;10.078;2022-08-21T00:09:03;4.70;;;2.55;;
20073;SDS011;10197;54.282;10.078;2022-08-21T00:11:32;3.40;;;2.50;;
20073;SDS011;10197;54.282;10.078;2022-08-21T00:14:00;4.78;;;2.83;;
20073;SDS011;10197;54.282;10.078;2022-08-21T00:16:29;5.43;;;2.65;;
20073;SDS011;10197;54.282;10.078;2022-08-21T00:18:56;4.80;;;2.72;;
20073;SDS011;10197;54.282;10.078;2022-08-21T00:21:24;4.10;;;2.75;;
20073;SDS011;10197;54.282;10.078;2022-08-21T00:23:51;6.25;;;3.05;;
20073;SDS011;10197;54.282;10.078;2022-08-21T00:26:18;4.15;;;2.97;;
20073;SDS011;10197;54.282;10.078;2022-08-21T00:28:46;2.97;;;2.63;;
20073;SDS011;10197;54.282;10.078;2022-08-21T00:31:14;3.20;;;2.88;;
20073;SDS011;10197;54.282;10.078;2022-08-21T00:33:43;4.18;;;3.10;;
20073;SDS011;10197;54.282;10.078;2022-08-21T00:36:10;5.00;;;2.95;;
20073;SDS011;10197;54.282;10.078;2022-08-21T00:38:39;3.95;;;3.20;;
20073;SDS011;10197;54.282;10.078;2022-08-21T00:41:07;3.08;;;2.60;;
20073;SDS011;10197;54.282;10.078;2022-08-21T00:43:36;4.43;;;2.90;;
20073;SDS011;10197;54.282;10.078;2022-08-21T00:46:04;5.97;;;3.10;;
20073;SDS011;10197;54.282;10.078;2022-08-21T00:48:33;2.97;;;2.70;;
20073;SDS011;10197;54.282;10.078;2022-08-21T00:51:04;3.80;;;2.65;;
20073;SDS011;10197;54.282;10.078;2022-08-21T00:53:32;5.72;;;2.45;;
20073;SDS011;10197;54.282;10.078;2022-08-21T00:56:01;3.72;;;2.83;;
20073;SDS011;10197;54.282;10.078;2022-08-21T00:58:29;2.95;;;2.20;;
20073;SDS011;10197;54.282;10.078;2022-08-21T01:00:58;5.22;;;2.40;;
20073;SDS011;10197;54.282;10.078;2022-08-21T01:03:26;3.72;;;2.50;;
20073;SDS011;10197;54.282;10.078;2022-08-21T01:05:53;4.35;;;2.80;;
20073;SDS011;10197;54.282;10.078;2022-08-21T01:08:22;4.15;;;2.85;;
20073;SDS011;10197;54.282;10.078;2022-08-21T01:10:49;4.28;;;2.40;;
20073;SDS011;10197;54.282;10.078;2022-08-21T01:13:17;2.75;;;2.47;;
20073;SDS011;10197;54.282;10.078;2022-08-21T01:15:48;7.38;;;2.50;;
20073;SDS011;10197;54.282;10.078;2022-08-21T01:18:17;4.35;;;2.10;;
20073;SDS011;10197;54.282;10.078;2022-08-21T01:20:55;4.13;;;3.03;;
20073;SDS011;10197;54.282;10.078;2022-08-21T01:23:25;2.75;;;2.40;;
20073;SDS011;10197;54.282;10.078;2022-08-21T01:25:52;2.47;;;2.17;;
20073;SDS011;10197;54.282;10.078;2022-08-21T01:28:19;4.72;;;2.50;;
20073;SDS011;10197;54.282;10.078;2022-08-21T01:30:47;4.50;;;3.00;;
20073;SDS011;10197;54.282;10.078;2022-08-21T01:33:15;4.18;;;2.60;;
20073;SDS011;10197;54.282;10.078;2022-08-21T01:35:43;3.65;;;2.65;;
20073;SDS011;10197;54.282;10.078;2022-08-21T01:38:11;3.85;;;2.50;;
20073;SDS011;10197;54.282;10.078;2022-08-21T01:40:38;3.65;;;2.35;;
20073;SDS011;10197;54.282;10.078;2022-08-21T01:43:05;3.15;;;2.80;;
20073;SDS011;10197;54.282;10.078;2022-08-21T01:45:32;3.17;;;2.60;;
20073;SDS011;10197;54.282;10.078;2022-08-21T01:47:59;3.58;;;2.40;;
20073;SDS011;10197;54.282;10.078;2022-08-21T01:50:25;2.70;;;2.45;;
20073;SDS011;10197;54.282;10.078;2022-08-21T01:52:52;3.17;;;2.42;;
20073;SDS011;10197;54.282;10.078;2022-08-21T01:55:20;3.53;;;2.15;;
20073;SDS011;10197;54.282;10.078;2022-08-21T01:57:48;3.42;;;2.55;;
20073;SDS011;10197;54.282;10.078;2022-08-21T02:00:18;5.22;;;2.58;;
20073;SDS011;10197;54.282;10.078;2022-08-21T02:02:48;3.90;;;2.55;;
20073;SDS011;10197;54.282;10.078;2022-08-21T02:05:15;2.83;;;2.20;;
20073;SDS011;10197;54.282;10.078;2022-08-21T02:07:43;3.88;;;2.88;;
20073;SDS011;10197;54.282;10.078;2022-08-21T02:10:11;3.35;;;2.60;;
20073;SDS011;10197;54.282;10.078;2022-08-21T02:12:41;3.97;;;2.50;;
20073;SDS011;10197;54.282;10.078;2022-08-21T02:15:08;5.78;;;3.13;;
20073;SDS011;10197;54.282;10.078;2022-08-21T02:17:39;4.75;;;2.90;;
20073;SDS011;10197;54.282;10.078;2022-08-21T02:20:08;5.13;;;2.78;;
20073;SDS011;10197;54.282;10.078;2022-08-21T02:22:36;5.25;;;2.72;;
20073;SDS011;10197;54.282;10.078;2022-08-21T02:25:03;3.25;;;2.95;;
20073;SDS011;10197;54.282;10.078;2022-08-21T02:27:36;4.32;;;2.53;;
20073;SDS011;10197;54.282;10.078;2022-08-21T02:30:06;3.25;;;2.50;;
20073;SDS011;10197;54.282;10.078;2022-08-21T02:32:34;3.58;;;2.70;;
20073;SDS011;10197;54.282;10.078;2022-08-21T02:35:01;4.53;;;2.75;;
20073;SDS011;10197;54.282;10.078;2022-08-21T02:37:28;4.70;;;2.85;;
20073;SDS011;10197;54.282;10.078;2022-08-21T02:39:55;6.28;;;3.08;;
20073;SDS011;10197;54.282;10.078;2022-08-21T02:42:22;4.10;;;3.00;;
20073;SDS011;10197;54.282;10.078;2022-08-21T02:44:49;4.57;;;2.90;;
20073;SDS011;10197;54.282;10.078;2022-08-21T02:47:17;3.65;;;3.03;;
20073;SDS011;10197;54.282;10.078;2022-08-21T02:49:44;5.32;;;3.28;;
20073;SDS011;10197;54.282;10.078;2022-08-21T02:52:11;6.85;;;3.88;;
20073;SDS011;10197;54.282;10.078;2022-08-21T02:54:39;7.85;;;3.90;;
20073;SDS011;10197;54.282;10.078;2022-08-21T02:57:06;4.55;;;3.60;;
20073;SDS011;10197;54.282;10.078;2022-08-21T02:59:33;4.63;;;3.70;;
20073;SDS011;10197;54.282;10.078;2022-08-21T03:02:00;4.63;;;3.65;;
20073;SDS011;10197;54.282;10.078;2022-08-21T03:04:30;5.55;;;3.80;;
20073;SDS011;10197;54.282;10.078;2022-08-21T03:06:57;6.68;;;4.00;;
20073;SDS011;10197;54.282;10.078;2022-08-21T03:09:24;4.57;;;3.85;;
20073;SDS011;10197;54.282;10.078;2022-08-21T03:11:51;5.07;;;3.80;;
20073;SDS011;10197;54.282;10.078;2022-08-21T03:14:19;5.68;;;4.10;;
20073;SDS011;10197;54.282;10.078;2022-08-21T03:16:45;6.72;;;4.28;;
20073;SDS011;10197;54.282;10.078;2022-08-21T03:19:12;6.20;;;4.07;;
20073;SDS011;10197;54.282;10.078;2022-08-21T03:21:41;7.90;;;4.07;;
20073;SDS011;10197;54.282;10.078;2022-08-21T03:24:07;5.55;;;3.75;;
20073;SDS011;10197;54.282;10.078;2022-08-21T03:26:34;6.93;;;4.18;;
20073;SDS011;10197;54.282;10.078;2022-08-21T03:29:01;5.38;;;3.97;;
20073;SDS011;10197;54.282;10.078;2022-08-21T03:31:28;6.85;;;4.00;;
20073;SDS011;10197;54.282;10.078;2022-08-21T03:33:57;5.80;;;3.97;;
20073;SDS011;10197;54.282;10.078;2022-08-21T03:36:24;6.00;;;3.70;;
20073;SDS011;10197;54.282;10.078;2022-08-21T03:38:52;6.53;;;4.30;;
20073;SDS011;10197;54.282;10.078;2022-08-21T03:41:19;6.10;;;4.30;;
20073;SDS011;10197;54.282;10.078;2022-08-21T03:43:46;5.43;;;3.97;;
20073;SDS011;10197;54.282;10.078;2022-08-21T03:46:13;4.97;;;3.92;;
20073;SDS011;10197;54.282;10.078;2022-08-21T03:48:40;5.60;;;4.18;;
20073;SDS011;10197;54.282;10.078;2022-08-21T03:51:07;6.95;;;4.18;;
20073;SDS011;10197;54.282;10.078;2022-08-21T03:53:34;4.60;;;4.20;;
20073;SDS011;10197;54.282;10.078;2022-08-21T03:56:03;4.80;;;4.03;;
20073;SDS011;10197;54.282;10.078;2022-08-21T03:58:31;4.68;;;3.60;;
20073;SDS011;10197;54.282;10.078;2022-08-21T04:00:59;4.75;;;3.95;;
20073;SDS011;10197;54.282;10.078;2022-08-21T04:03:26;6.93;;;3.80;;
20073;SDS011;10197;54.282;10.078;2022-08-21T04:05:54;4.32;;;3.70;;
20073;SDS011;10197;54.282;10.078;2022-08-21T04:08:21;5.32;;;3.75;;
20073;SDS011;10197;54.282;10.078;2022-08-21T04:10:48;6.22;;;4.25;;
20073;SDS011;10197;54.282;10.078;2022-08-21T04:13:18;4.55;;;3.92;;
20073;SDS011;10197;54.282;10.078;2022-08-21T04:15:45;5.53;;;3.85;;
20073;SDS011;10197;54.282;10.078;2022-08-21T04:18:15;5.20;;;3.88;;
20073;SDS011;10197;54.282;10.078;2022-08-21T04:20:43;5.03;;;4.05;;
20073;SDS011;10197;54.282;10.078;2022-08-21T04:23:11;4.75;;;3.67;;
20073;SDS011;10197;54.282;10.078;2022-08-21T04:25:38;6.97;;;4.00;;
20073;SDS011;10197;54.282;10.078;2022-08-21T04:28:05;5.30;;;4.10;;
20073;SDS011;10197;54.282;10.078;2022-08-21T04:30:33;5.30;;;3.90;;
20073;SDS011;10197;54.282;10.078;2022-08-21T04:33:00;4.70;;;3.70;;
20073;SDS011;10197;54.282;10.078;2022-08-21T04:35:28;4.75;;;4.10;;
20073;SDS011;10197;54.282;10.078;2022-08-21T04:37:56;4.60;;;3.53;;
20073;SDS011;10197;54.282;10.078;2022-08-21T04:40:24;4.18;;;3.67;;
20073;SDS011;10197;54.282;10.078;2022-08-21T04:42:54;6.63;;;4.32;;
20073;SDS011;10197;54.282;10.078;2022-08-21T04:45:25;4.80;;;3.50;;
20073;SDS011;10197;54.282;10.078;2022-08-21T04:47:54;5.10;;;4.28;;
20073;SDS011;10197;54.282;10.078;2022-08-21T04:50:23;5.72;;;4.22;;
20073;SDS011;10197;54.282;10.078;2022-08-21T04:53:02;5.65;;;4.03;;
20073;SDS011;10197;54.282;10.078;2022-08-21T04:55:30;5.38;;;3.75;;
20073;SDS011;10197;54.282;10.078;2022-08-21T04:57:57;4.10;;;3.70;;
20073;SDS011;10197;54.282;10.078;2022-08-21T05:00:27;5.03;;;3.72;;
20073;SDS011;10197;54.282;10.078;2022-08-21T05:02:55;6.55;;;4.57;;
20073;SDS011;10197;54.282;10.078;2022-08-21T05:05:24;6.82;;;5.35;;
20073;SDS011;10197;54.282;10.078;2022-08-21T05:07:51;7.45;;;5.97;;
20073;SDS011;10197;54.282;10.078;2022-08-21T05:10:18;6.75;;;5.28;;
20073;SDS011;10197;54.282;10.078;2022-08-21T05:12:45;5.53;;;4.82;;
20073;SDS011;10197;54.282;10.078;2022-08-21T05:15:12;6.93;;;5.47;;
20073;SDS011;10197;54.282;10.078;2022-08-21T05:17:39;6.60;;;5.07;;
20073;SDS011;10197;54.282;10.078;2022-08-21T05:20:07;8.15;;;5.13;;
20073;SDS011;10197;54.282;10.078;2022-08-21T05:22:35;7.00;;;4.78;;
20073;SDS011;10197;54.282;10.078;2022-08-21T05:25:02;9.38;;;6.50;;
20073;SDS011;10197;54.282;10.078;2022-08-21T05:27:31;7.15;;;5.65;;
20073;SDS011;10197;54.282;10.078;2022-08-21T05:29:58;7.72;;;6.18;;
20073;SDS011;10197;54.282;10.078;2022-08-21T05:32:30;7.35;;;5.18;;
20073;SDS011;10197;54.282;10.078;2022-08-21T05:34:57;5.72;;;5.07;;
20073;SDS011;10197;54.282;10.078;2022-08-21T05:37:26;8.70;;;5.40;;
20073;SDS011;10197;54.282;10.078;2022-08-21T05:39:53;9.68;;;5.72;;
20073;SDS011;10197;54.282;10.078;2022-08-21T05:42:20;5.93;;;5.10;;
20073;SDS011;10197;54.282;10.078;2022-08-21T05:44:47;6.55;;;5.35;;
20073;SDS011;10197;54.282;10.078;2022-08-21T05:47:13;7.25;;;5.07;;
20073;SDS011;10197;54.282;10.078;2022-08-21T05:49:40;10.65;;;5.45;;
20073;SDS011;10197;54.282;10.078;2022-08-21T05:52:07;9.73;;;6.20;;
20073;SDS011;10197;54.282;10.078;2022-08-21T05:54:37;7.80;;;6.32;;
20073;SDS011;10197;54.282;10.078;2022-08-21T05:57:04;7.60;;;5.40;;
20073;SDS011;10197;54.282;10.078;2022-08-21T05:59:31;10.02;;;5.63;;
20073;SDS011;10197;54.282;10.078;2022-08-21T06:01:57;6.63;;;5.07;;
20073;SDS011;10197;54.282;10.078;2022-08-21T06:04:24;8.15;;;5.32;;
20073;SDS011;10197;54.282;10.078;2022-08-21T06:06:51;8.13;;;5.13;;
20073;SDS011;10197;54.282;10.078;2022-08-21T06:09:18;6.38;;;4.40;;
20073;SDS011;10197;54.282;10.078;2022-08-21T06:11:46;7.20;;;4.20;;
20073;SDS011;10197;54.282;10.078;2022-08-21T06:14:13;6.80;;;4.75;;
20073;SDS011;10197;54.282;10.078;2022-08-21T06:16:41;7.97;;;5.03;;
20073;SDS011;10197;54.282;10.078;2022-08-21T06:19:07;12.18;;;6.18;;
20073;SDS011;10197;54.282;10.078;2022-08-21T06:21:34;9.55;;;6.05;;
20073;SDS011;10197;54.282;10.078;2022-08-21T06:24:02;10.00;;;5.88;;
20073;SDS011;10197;54.282;10.078;2022-08-21T06:26:30;10.60;;;6.40;;
20073;SDS011;10197;54.282;10.078;2022-08-21T06:28:59;7.97;;;5.47;;
20073;SDS011;10197;54.282;10.078;2022-08-21T06:31:28;7.22;;;5.00;;
20073;SDS011;10197;54.282;10.078;2022-08-21T06:33:55;7.07;;;4.22;;
20073;SDS011;10197;54.282;10.078;2022-08-21T06:36:22;7.38;;;4.63;;
20073;SDS011;10197;54.282;10.078;2022-08-21T06:38:49;6.13;;;4.30;;
20073;SDS011;10197;54.282;10.078;2022-08-21T06:41:16;9.95;;;5.20;;
20073;SDS011;10197;54.282;10.078;2022-08-21T06:43:42;8.95;;;5.43;;
20073;SDS011;10197;54.282;10.078;2022-08-21T06:46:11;7.03;;;4.28;;
20073;SDS011;10197;54.282;10.078;2022-08-21T06:48:37;8.25;;;3.85;;
20073;SDS011;10197;54.282;10.078;2022-08-21T06:51:04;7.88;;;4.35;;
20073;SDS011;10197;54.282;10.078;2022-08-21T06:53:31;5.72;;;3.38;;
20073;SDS011;10197;54.282;10.078;2022-08-21T06:55:58;6.32;;;3.30;;
20073;SDS011;10197;54.282;10.078;2022-08-21T06:58:25;5.00;;;2.83;;
20073;SDS011;10197;54.282;10.078;2022-08-21T07:00:52;6.00;;;2.92;;
20073;SDS011;10197;54.282;10.078;2022-08-21T07:03:22;6.40;;;2.53;;
20073;SDS011;10197;54.282;10.078;2022-08-21T07:05:50;7.60;;;3.70;;
20073;SDS011;10197;54.282;10.078;2022-08-21T07:08:17;10.02;;;3.80;;
20073;SDS011;10197;54.282;10.078;2022-08-21T07:10:43;9.75;;;3.40;;
20073;SDS011;10197;54.282;10.078;2022-08-21T07:13:10;5.10;;;2.88;;
20073;SDS011;10197;54.282;10.078;2022-08-21T07:15:37;7.47;;;2.50;;
20073;SDS011;10197;54.282;10.078;2022-08-21T07:18:04;5.60;;;2.30;;
20073;SDS011;10197;54.282;10.078;2022-08-21T07:20:33;4.95;;;2.47;;
20073;SDS011;10197;54.282;10.078;2022-08-21T07:23:01;8.75;;;5.22;;
20073;SDS011;10197;54.282;10.078;2022-08-21T07:25:29;5.78;;;2.50;;
20073;SDS011;10197;54.282;10.078;2022-08-21T07:27:56;6.78;;;2.30;;
20073;SDS011;10197;54.282;10.078;2022-08-21T07:30:23;10.00;;;2.60;;
20073;SDS011;10197;54.282;10.078;2022-08-21T07:32:51;8.35;;;2.70;;
20073;SDS011;10197;54.282;10.078;2022-08-21T07:35:18;6.68;;;2.58;;
20073;SDS011;10197;54.282;10.078;2022-08-21T07:37:48;5.03;;;2.28;;
20073;SDS011;10197;54.282;10.078;2022-08-21T07:40:15;6.03;;;2.15;;
20073;SDS011;10197;54.282;10.078;2022-08-21T07:42:43;5.53;;;2.60;;
20073;SDS011;10197;54.282;10.078;2022-08-21T07:45:12;5.40;;;2.63;;
20073;SDS011;10197;54.282;10.078;2022-08-21T07:47:40;6.05;;;2.22;;
20073;SDS011;10197;54.282;10.078;2022-08-21T07:50:08;5.90;;;2.75;;
20073;SDS011;10197;54.282;10.078;2022-08-21T07:52:36;5.10;;;2.50;;
20073;SDS011;10197;54.282;10.078;2022-08-21T07:55:05;7.30;;;2.10;;
20073;SDS011;10197;54.282;10.078;2022-08-21T07:57:32;5.70;;;2.53;;
20073;SDS011;10197;54.282;10.078;2022-08-21T08:00:00;8.10;;;2.38;;
20073;SDS011;10197;54.282;10.078;2022-08-21T08:02:37;4.47;;;1.92;;
20073;SDS011;10197;54.282;10.078;2022-08-21T08:05:06;4.85;;;2.30;;
20073;SDS011;10197;54.282;10.078;2022-08-21T08:07:35;5.50;;;2.15;;
20073;SDS011;10197;54.282;10.078;2022-08-21T08:10:02;4.00;;;2.20;;
20073;SDS011;10197;54.282;10.078;2022-08-21T08:12:33;6.40;;;2.53;;
20073;SDS011;10197;54.282;10.078;2022-08-21T08:15:00;4.75;;;2.20;;
20073;SDS011;10197;54.282;10.078;2022-08-21T08:17:27;6.28;;;2.60;;
20073;SDS011;10197;54.282;10.078;2022-08-21T08:19:54;4.05;;;2.10;;
20073;SDS011;10197;54.282;10.078;2022-08-21T08:22:21;6.00;;;2.28;;
20073;SDS011;10197;54.282;10.078;2022-08-21T08:24:49;4.85;;;2.00;;
20073;SDS011;10197;54.282;10.078;2022-08-21T08:27:17;6.63;;;2.33;;
20073;SDS011;10197;54.282;10.078;2022-08-21T08:29:45;4.80;;;1.90;;
20073;SDS011;10197;54.282;10.078;2022-08-21T08:32:12;5.07;;;2.28;;
20073;SDS011;10197;54.282;10.078;2022-08-21T08:34:39;4.65;;;2.08;;
20073;SDS011;10197;54.282;10.078;2022-08-21T08:37:07;4.43;;;1.98;;
20073;SDS011;10197;54.282;10.078;2022-08-21T08:39:35;7.07;;;2.55;;
20073;SDS011;10197;54.282;10.078;2022-08-21T08:42:03;5.00;;;2.25;;
20073;SDS011;10197;54.282;10.078;2022-08-21T08:44:38;3.88;;;1.80;;
20073;SDS011;10197;54.282;10.078;2022-08-21T08:47:07;5.72;;;2.08;;
20073;SDS011;10197;54.282;10.078;2022-08-21T08:49:37;6.85;;;2.25;;
20073;SDS011;10197;54.282;10.078;2022-08-21T08:52:07;8.90;;;2.50;;
20073;SDS011;10197;54.282;10.078;2022-08-21T08:54:41;5.20;;;2.28;;
20073;SDS011;10197;54.282;10.078;2022-08-21T08:57:14;4.25;;;2.28;;
20073;SDS011;10197;54.282;10.078;2022-08-21T08:59:45;6.85;;;3.00;;
20073;SDS011;10197;54.282;10.078;2022-08-21T09:02:16;4.60;;;2.10;;
20073;SDS011;10197;54.282;10.078;2022-08-21T09:04:44;5.13;;;2.42;;
20073;SDS011;10197;54.282;10.078;2022-08-21T09:07:12;5.70;;;2.33;;
20073;SDS011;10197;54.282;10.078;2022-08-21T09:09:51;4.13;;;2.30;;
20073;SDS011;10197;54.282;10.078;2022-08-21T09:12:29;9.57;;;2.85;;
20073;SDS011;10197;54.282;10.078;2022-08-21T09:15:02;11.25;;;3.03;;
20073;SDS011;10197;54.282;10.078;2022-08-21T09:17:39;6.57;;;2.60;;
20073;SDS011;10197;54.282;10.078;2022-08-21T09:20:23;8.50;;;2.85;;
20073;SDS011;10197;54.282;10.078;2022-08-21T09:22:58;5.18;;;2.63;;
20073;SDS011;10197;54.282;10.078;2022-08-21T09:25:30;9.07;;;2.35;;
20073;SDS011;10197;54.282;10.078;2022-08-21T09:27:59;7.68;;;3.00;;
20073;SDS011;10197;54.282;10.078;2022-08-21T09:30:27;6.75;;;2.35;;
20073;SDS011;10197;54.282;10.078;2022-08-21T09:32:58;7.22;;;2.33;;
20073;SDS011;10197;54.282;10.078;2022-08-21T09:35:25;6.75;;;2.70;;
20073;SDS011;10197;54.282;10.078;2022-08-21T09:37:53;6.50;;;2.47;;
20073;SDS011;10197;54.282;10.078;2022-08-21T09:40:27;6.95;;;2.75;;
20073;SDS011;10197;54.282;10.078;2022-08-21T09:42:59;7.70;;;2.80;;
20073;SDS011;10197;54.282;10.078;2022-08-21T09:45:27;9.15;;;2.60;;
20073;SDS011;10197;54.282;10.078;2022-08-21T09:47:55;9.38;;;3.50;;
20073;SDS011;10197;54.282;10.078;2022-08-21T09:50:25;5.50;;;2.67;;
20073;SDS011;10197;54.282;10.078;2022-08-21T09:52:54;7.22;;;2.97;;
20073;SDS011;10197;54.282;10.078;2022-08-21T09:55:28;8.82;;;2.47;;
20073;SDS011;10197;54.282;10.078;2022-08-21T09:58:16;7.68;;;2.40;;
20073;SDS011;10197;54.282;10.078;2022-08-21T10:00:44;9.50;;;2.50;;
20073;SDS011;10197;54.282;10.078;2022-08-21T10:03:13;7.95;;;3.20;;
20073;SDS011;10197;54.282;10.078;2022-08-21T10:05:51;6.60;;;2.92;;
20073;SDS011;10197;54.282;10.078;2022-08-21T10:08:21;6.63;;;2.92;;
20073;SDS011;10197;54.282;10.078;2022-08-21T10:10:50;10.45;;;3.22;;
20073;SDS011;10197;54.282;10.078;2022-08-21T10:13:20;10.00;;;3.30;;
20073;SDS011;10197;54.282;10.078;2022-08-21T10:15:54;7.53;;;2.95;;
20073;SDS011;10197;54.282;10.078;2022-08-21T10:18:27;6.50;;;3.00;;
20073;SDS011;10197;54.282;10.078;2022-08-21T10:21:00;5.97;;;2.80;;
20073;SDS011;10197;54.282;10.078;2022-08-21T10:23:33;8.73;;;3.20;;
20073;SDS011;10197;54.282;10.078;2022-08-21T10:26:07;8.27;;;2.90;;
20073;SDS011;10197;54.282;10.078;2022-08-21T10:28:39;8.05;;;3.05;;
20073;SDS011;10197;54.282;10.078;2022-08-21T10:31:11;6.70;;;2.65;;
20073;SDS011;10197;54.282;10.078;2022-08-21T10:33:42;7.15;;;2.63;;
20073;SDS011;10197;54.282;10.078;2022-08-21T10:36:15;5.32;;;2.38;;
20073;SDS011;10197;54.282;10.078;2022-08-21T10:38:50;8.05;;;2.47;;
20073;SDS011;10197;54.282;10.078;2022-08-21T10:41:23;5.75;;;2.92;;
20073;SDS011;10197;54.282;10.078;2022-08-21T10:44:00;5.28;;;2.17;;
20073;SDS011;10197;54.282;10.078;2022-08-21T10:46:37;4.30;;;2.10;;
20073;SDS011;10197;54.282;10.078;2022-08-21T10:49:12;4.03;;;2.05;;
20073;SDS011;10197;54.282;10.078;2022-08-21T10:51:45;6.38;;;2.17;;
20073;SDS011;10197;54.282;10.078;2022-08-21T10:54:23;4.38;;;1.95;;
20073;SDS011;10197;54.282;10.078;2022-08-21T10:56:56;7.45;;;2.60;;
20073;SDS011;10197;54.282;10.078;2022-08-21T10:59:28;5.63;;;2.40;;
20073;SDS011;10197;54.282;10.078;2022-08-21T11:01:59;5.47;;;2.17;;
20073;SDS011;10197;54.282;10.078;2022-08-21T11:04:28;5.07;;;2.50;;
20073;SDS011;10197;54.282;10.078;2022-08-21T11:07:00;6.55;;;2.45;;
20073;SDS011;10197;54.282;10.078;2022-08-21T11:09:29;3.65;;;1.92;;
20073;SDS011;10197;54.282;10.078;2022-08-21T11:11:57;5.57;;;2.03;;
20073;SDS011;10197;54.282;10.078;2022-08-21T11:14:31;5.30;;;1.80;;
20073;SDS011;10197;54.282;10.078;2022-08-21T11:17:05;3.40;;;2.05;;
20073;SDS011;10197;54.282;10.078;2022-08-21T11:19:35;5.28;;;2.10;;
20073;SDS011;10197;54.282;10.078;2022-08-21T11:22:08;2.58;;;1.98;;
20073;SDS011;10197;54.282;10.078;2022-08-21T11:24:42;3.15;;;1.83;;
20073;SDS011;10197;54.282;10.078;2022-08-21T11:27:19;4.18;;;1.60;;
20073;SDS011;10197;54.282;10.078;2022-08-21T11:29:51;2.97;;;1.45;;
20073;SDS011;10197;54.282;10.078;2022-08-21T11:35:27;2.92;;;1.70;;
20073;SDS011;10197;54.282;10.078;2022-08-21T11:38:05;2.65;;;1.45;;
20073;SDS011;10197;54.282;10.078;2022-08-21T11:40:42;3.30;;;1.50;;
20073;SDS011;10197;54.282;10.078;2022-08-21T11:43:17;3.63;;;1.65;;
20073;SDS011;10197;54.282;10.078;2022-08-21T11:45:47;2.58;;;1.58;;
20073;SDS011;10197;54.282;10.078;2022-08-21T11:48:33;3.75;;;1.70;;
20073;SDS011;10197;54.282;10.078;2022-08-21T11:51:05;2.58;;;1.50;;
20073;SDS011;10197;54.282;10.078;2022-08-21T11:53:37;2.42;;;1.58;;
20073;SDS011;10197;54.282;10.078;2022-08-21T11:56:08;2.33;;;1.58;;
20073;SDS011;10197;54.282;10.078;2022-08-21T11:58:39;2.92;;;1.50;;
20073;SDS011;10197;54.282;10.078;2022-08-21T12:01:08;2.15;;;1.42;;
20073;SDS011;10197;54.282;10.078;2022-08-21T12:03:39;2.97;;;1.40;;
20073;SDS011;10197;54.282;10.078;2022-08-21T12:06:08;1.52;;;1.23;;
20073;SDS011;10197;54.282;10.078;2022-08-21T12:08:38;2.35;;;1.52;;
20073;SDS011;10197;54.282;10.078;2022-08-21T12:11:06;2.42;;;1.25;;
20073;SDS011;10197;54.282;10.078;2022-08-21T12:13:35;1.52;;;1.13;;
20073;SDS011;10197;54.282;10.078;2022-08-21T12:16:07;2.42;;;1.30;;
20073;SDS011;10197;54.282;10.078;2022-08-21T12:18:35;1.75;;;1.20;;
20073;SDS011;10197;54.282;10.078;2022-08-21T12:21:17;2.90;;;1.38;;
20073;SDS011;10197;54.282;10.078;2022-08-21T12:23:59;2.22;;;1.20;;
20073;SDS011;10197;54.282;10.078;2022-08-21T12:26:28;1.77;;;1.20;;
20073;SDS011;10197;54.282;10.078;2022-08-21T12:29:12;2.75;;;1.13;;
20073;SDS011;10197;54.282;10.078;2022-08-21T12:31:49;2.28;;;1.20;;
20073;SDS011;10197;54.282;10.078;2022-08-21T12:34:18;3.63;;;1.30;;
20073;SDS011;10197;54.282;10.078;2022-08-21T12:36:48;1.58;;;1.10;;
20073;SDS011;10197;54.282;10.078;2022-08-21T12:39:21;2.45;;;0.95;;
20073;SDS011;10197;54.282;10.078;2022-08-21T12:41:51;2.38;;;1.30;;
20073;SDS011;10197;54.282;10.078;2022-08-21T12:44:22;1.23;;;1.10;;
20073;SDS011;10197;54.282;10.078;2022-08-21T12:46:54;3.05;;;1.35;;
20073;SDS011;10197;54.282;10.078;2022-08-21T12:49:26;2.85;;;1.30;;
20073;SDS011;10197;54.282;10.078;2022-08-21T12:51:57;1.10;;;1.00;;
20073;SDS011;10197;54.282;10.078;2022-08-21T12:54:31;1.30;;;0.90;;
20073;SDS011;10197;54.282;10.078;2022-08-21T12:57:04;2.28;;;1.10;;
20073;SDS011;10197;54.282;10.078;2022-08-21T12:59:32;1.50;;;1.15;;
20073;SDS011;10197;54.282;10.078;2022-08-21T13:02:05;2.33;;;1.20;;
20073;SDS011;10197;54.282;10.078;2022-08-21T13:04:42;2.42;;;1.45;;
20073;SDS011;10197;54.282;10.078;2022-08-21T13:07:10;3.40;;;1.00;;
20073;SDS011;10197;54.282;10.078;2022-08-21T13:09:42;1.67;;;1.13;;
20073;SDS011;10197;54.282;10.078;2022-08-21T13:12:11;1.90;;;1.10;;
20073;SDS011;10197;54.282;10.078;2022-08-21T13:14:39;2.13;;;1.30;;
20073;SDS011;10197;54.282;10.078;2022-08-21T13:17:07;1.25;;;1.08;;
20073;SDS011;10197;54.282;10.078;2022-08-21T13:19:35;2.10;;;1.10;;
20073;SDS011;10197;54.282;10.078;2022-08-21T13:22:03;1.90;;;1.20;;
20073;SDS011;10197;54.282;10.078;2022-08-21T13:24:31;2.35;;;0.82;;
20073;SDS011;10197;54.282;10.078;2022-08-21T13:27:01;1.77;;;0.95;;
20073;SDS011;10197;54.282;10.078;2022-08-21T13:29:29;2.15;;;1.10;;
20073;SDS011;10197;54.282;10.078;2022-08-21T13:31:58;3.83;;;1.30;;
20073;SDS011;10197;54.282;10.078;2022-08-21T13:34:29;2.67;;;1.23;;
20073;SDS011;10197;54.282;10.078;2022-08-21T13:36:58;5.05;;;1.17;;
20073;SDS011;10197;54.282;10.078;2022-08-21T13:39:27;2.55;;;1.17;;
20073;SDS011;10197;54.282;10.078;2022-08-21T13:41:55;2.45;;;0.90;;
20073;SDS011;10197;54.282;10.078;2022-08-21T13:44:30;3.75;;;1.23;;
20073;SDS011;10197;54.282;10.078;2022-08-21T13:47:01;1.73;;;1.00;;
20073;SDS011;10197;54.282;10.078;2022-08-21T13:49:30;1.60;;;1.20;;
20073;SDS011;10197;54.282;10.078;2022-08-21T13:51:58;2.13;;;1.00;;
20073;SDS011;10197;54.282;10.078;2022-08-21T13:54:26;1.90;;;1.50;;
20073;SDS011;10197;54.282;10.078;2022-08-21T13:56:54;3.42;;;1.40;;
20073;SDS011;10197;54.282;10.078;2022-08-21T13:59:29;3.90;;;1.45;;
20073;SDS011;10197;54.282;10.078;2022-08-21T14:01:58;5.43;;;1.45;;
20073;SDS011;10197;54.282;10.078;2022-08-21T14:04:31;3.95;;;1.50;;
20073;SDS011;10197;54.282;10.078;2022-08-21T14:07:01;3.58;;;1.50;;
20073;SDS011;10197;54.282;10.078;2022-08-21T14:09:30;3.30;;;1.10;;
20073;SDS011;10197;54.282;10.078;2022-08-21T14:11:59;3.95;;;1.40;;
20073;SDS011;10197;54.282;10.078;2022-08-21T14:14:30;5.13;;;1.50;;
20073;SDS011;10197;54.282;10.078;2022-08-21T14:16:59;3.53;;;1.55;;
20073;SDS011;10197;54.282;10.078;2022-08-21T14:19:27;5.80;;;1.52;;
20073;SDS011;10197;54.282;10.078;2022-08-21T14:22:23;4.60;;;1.50;;
20073;SDS011;10197;54.282;10.078;2022-08-21T14:24:58;4.68;;;1.60;;
20073;SDS011;10197;54.282;10.078;2022-08-21T14:27:27;4.68;;;1.67;;
20073;SDS011;10197;54.282;10.078;2022-08-21T14:29:58;5.85;;;2.25;;
20073;SDS011;10197;54.282;10.078;2022-08-21T14:32:27;2.90;;;1.83;;
20073;SDS011;10197;54.282;10.078;2022-08-21T14:34:56;3.22;;;1.70;;
20073;SDS011;10197;54.282;10.078;2022-08-21T14:37:23;3.40;;;1.40;;
20073;SDS011;10197;54.282;10.078;2022-08-21T14:39:50;3.10;;;1.77;;
20073;SDS011;10197;54.282;10.078;2022-08-21T14:42:17;3.38;;;1.95;;
20073;SDS011;10197;54.282;10.078;2022-08-21T14:44:44;4.40;;;1.70;;
20073;SDS011;10197;54.282;10.078;2022-08-21T14:47:12;2.58;;;1.60;;
20073;SDS011;10197;54.282;10.078;2022-08-21T14:49:39;3.40;;;2.00;;